Time;durP1;ratioP1;P1;durP2;ratioP2;P2;SDS_P1;SDS_P2;PMS_P1;PMS_P2;Temp;Humidity;BMP_temperature;BMP_pressure;BME280_temperature;BME280_humidity;BME280_pressure;Samples;Min_cycle;Max_cycle;Signal;HPM_P1;HPM_P2
2021/03/15 00:01:13;;;;;;;4.70;2.20;;;6.10;99.90;;;;;;4881362;29;20150;-64
2021/03/15 00:03:40;;;;;;;4.55;1.98;;;6.10;99.90;;;;;;4897981;29;20119;-64
2021/03/15 00:06:06;;;;;;;5.57;2.03;;;6.20;99.90;;;;;;4880986;29;20028;-64
2021/03/15 00:08:33;;;;;;;7.07;2.53;;;6.10;99.90;;;;;;4880330;29;20067;-62
2021/03/15 00:10:59;;;;;;;4.35;2.08;;;6.20;99.90;;;;;;4879997;29;20035;-64
2021/03/15 00:13:26;;;;;;;7.18;2.50;;;6.20;99.90;;;;;;4880970;29;20484;-63
2021/03/15 00:15:54;;;;;;;3.30;1.92;;;6.20;99.90;;;;;;4880295;29;20051;-63
2021/03/15 00:18:20;;;;;;;7.00;2.92;;;6.20;99.90;;;;;;4880520;29;20069;-63
2021/03/15 00:20:46;;;;;;;4.35;2.20;;;6.20;99.90;;;;;;4896824;29;20071;-63
2021/03/15 00:23:12;;;;;;;4.05;1.70;;;6.20;99.90;;;;;;4880210;29;20056;-63
2021/03/15 00:25:38;;;;;;;4.30;1.55;;;6.20;99.90;;;;;;4880480;29;20108;-63
2021/03/15 00:28:04;;;;;;;11.02;2.10;;;6.20;99.90;;;;;;4879807;29;20359;-63
2021/03/15 00:30:29;;;;;;;7.22;2.67;;;6.20;99.90;;;;;;4897487;29;20083;-63
2021/03/15 00:32:55;;;;;;;6.43;1.90;;;6.20;99.90;;;;;;4880089;29;20502;-65
2021/03/15 00:35:21;;;;;;;3.75;1.85;;;6.20;99.90;;;;;;4897359;29;20137;-63
2021/03/15 00:37:47;;;;;;;4.82;2.08;;;6.20;99.90;;;;;;4879558;29;20443;-63
2021/03/15 00:40:16;;;;;;;5.25;2.33;;;6.20;99.90;;;;;;4880410;29;20069;-63
2021/03/15 00:42:46;;;;;;;4.90;1.95;;;6.20;99.90;;;;;;4880337;29;20120;-64
2021/03/15 00:45:13;;;;;;;4.95;1.80;;;6.20;99.90;;;;;;4880351;29;20486;-63
2021/03/15 00:47:39;;;;;;;5.45;1.50;;;6.10;99.90;;;;;;4897083;29;20039;-63
2021/03/15 00:50:08;;;;;;;7.25;1.85;;;6.10;99.90;;;;;;4896186;29;20463;-63
2021/03/15 00:52:34;;;;;;;5.45;2.20;;;6.00;99.90;;;;;;4880071;29;20036;-64
2021/03/15 00:54:59;;;;;;;5.53;1.73;;;6.00;99.90;;;;;;4879559;29;20443;-64
2021/03/15 00:57:25;;;;;;;4.78;1.65;;;6.00;99.90;;;;;;4879770;29;20025;-64
2021/03/15 00:59:51;;;;;;;5.32;1.60;;;6.10;99.90;;;;;;4896717;29;20036;-63
2021/03/15 01:02:16;;;;;;;9.82;2.65;;;6.00;99.90;;;;;;4880478;29;20463;-62
2021/03/15 01:04:42;;;;;;;5.32;2.13;;;6.00;99.90;;;;;;4880045;29;20103;-63
2021/03/15 01:07:10;;;;;;;4.60;2.00;;;6.00;99.90;;;;;;4879092;29;20043;-64
2021/03/15 01:09:36;;;;;;;4.80;2.38;;;6.00;99.90;;;;;;4896832;29;20057;-63
2021/03/15 01:12:03;;;;;;;5.28;2.17;;;5.90;99.90;;;;;;4896123;29;20527;-63
2021/03/15 01:14:28;;;;;;;5.47;3.05;;;5.90;99.90;;;;;;4896637;29;20041;-64
2021/03/15 01:16:54;;;;;;;8.45;2.47;;;6.00;99.90;;;;;;4879311;29;20433;-64
2021/03/15 01:19:20;;;;;;;5.40;2.95;;;5.70;99.90;;;;;;4879869;29;20107;-64
2021/03/15 01:21:45;;;;;;;3.00;2.00;;;5.70;99.90;;;;;;4879249;29;20546;-64
2021/03/15 01:24:11;;;;;;;6.60;2.13;;;5.70;99.90;;;;;;4879758;29;20037;-64
2021/03/15 01:26:37;;;;;;;6.43;2.42;;;5.60;99.90;;;;;;4879887;29;20032;-64
2021/03/15 01:29:03;;;;;;;9.23;2.80;;;5.70;99.90;;;;;;4879132;29;20032;-63
2021/03/15 01:31:28;;;;;;;3.88;2.28;;;5.50;99.90;;;;;;4896523;29;20368;-63
2021/03/15 01:33:54;;;;;;;4.82;2.15;;;5.60;99.90;;;;;;4879032;29;20542;-63
2021/03/15 01:36:20;;;;;;;5.07;2.50;;;5.50;99.90;;;;;;4896037;29;20093;-63
2021/03/15 01:38:46;;;;;;;5.65;2.50;;;5.50;99.90;;;;;;4879238;29;20428;-67
2021/03/15 01:41:12;;;;;;;9.75;2.63;;;5.50;99.90;;;;;;4896196;29;20028;-63
2021/03/15 01:43:37;;;;;;;7.35;3.67;;;5.40;99.90;;;;;;4896340;29;20441;-63
2021/03/15 01:46:03;;;;;;;6.35;3.08;;;5.30;99.90;;;;;;4878730;29;20028;-63
2021/03/15 01:48:29;;;;;;;6.50;3.95;;;5.20;99.90;;;;;;4896211;29;20067;-64
2021/03/15 01:50:54;;;;;;;7.03;2.70;;;5.10;99.90;;;;;;4878764;29;20128;-63
2021/03/15 01:53:21;;;;;;;7.40;2.78;;;5.20;99.90;;;;;;4879185;29;20037;-63
2021/03/15 01:55:47;;;;;;;5.45;2.25;;;5.20;99.90;;;;;;4878717;29;20126;-66
2021/03/15 01:58:14;;;;;;;5.32;3.10;;;5.20;99.90;;;;;;4879284;29;20107;-63
2021/03/15 02:00:41;;;;;;;6.85;3.05;;;5.20;99.90;;;;;;4879118;29;20035;-66
2021/03/15 02:03:08;;;;;;;5.10;3.83;;;5.30;99.90;;;;;;4895171;29;20458;-63
2021/03/15 02:05:36;;;;;;;9.60;3.30;;;5.30;99.90;;;;;;4896188;29;20099;-63
2021/03/15 02:08:03;;;;;;;6.40;3.00;;;5.20;99.90;;;;;;4878509;29;20521;-63
2021/03/15 02:10:29;;;;;;;4.80;2.95;;;5.10;99.90;;;;;;4879019;29;20073;-63
2021/03/15 02:12:57;;;;;;;7.82;3.30;;;5.10;99.90;;;;;;4895848;29;20039;-63
2021/03/15 02:15:41;;;;;;;11.20;3.65;;;5.10;99.90;;;;;;4879139;29;20029;-64
2021/03/15 02:18:19;;;;;;;9.15;4.63;;;5.20;99.90;;;;;;4895187;29;20036;-64
2021/03/15 02:21:15;;;;;;;5.78;2.72;;;5.20;99.90;;;;;;4879290;29;20045;-64
2021/03/15 02:23:58;;;;;;;8.27;3.40;;;5.30;99.90;;;;;;4880615;29;20146;-63
2021/03/15 02:26:45;;;;;;;8.38;3.25;;;5.30;99.90;;;;;;4883044;29;20534;-63
2021/03/15 02:29:30;;;;;;;5.88;3.22;;;5.40;99.90;;;;;;4882164;29;20522;-63
2021/03/15 02:32:34;;;;;;;6.60;2.90;;;5.40;99.90;;;;;;4882225;29;20029;-63
2021/03/15 02:35:00;;;;;;;7.47;3.03;;;5.40;99.90;;;;;;4882218;29;20033;-63
2021/03/15 02:37:33;;;;;;;6.97;3.30;;;5.40;99.90;;;;;;4866925;29;20414;-64
2021/03/15 02:40:05;;;;;;;6.63;4.03;;;5.40;99.90;;;;;;4898717;29;20482;-64
2021/03/15 02:42:32;;;;;;;5.80;3.53;;;5.40;99.90;;;;;;4899582;29;20032;-64
2021/03/15 02:44:59;;;;;;;11.00;3.83;;;5.30;99.90;;;;;;4882041;29;20077;-63
2021/03/15 02:47:27;;;;;;;9.18;3.17;;;5.30;99.90;;;;;;4899513;29;20033;-62
2021/03/15 02:49:59;;;;;;;6.60;4.28;;;5.30;99.90;;;;;;4881789;29;20029;-62
2021/03/15 02:52:25;;;;;;;6.78;3.28;;;5.30;99.90;;;;;;4882144;29;20028;-63
2021/03/15 02:54:54;;;;;;;8.90;3.38;;;5.30;99.90;;;;;;4881397;29;20040;-63
2021/03/15 02:57:21;;;;;;;8.18;4.03;;;5.20;99.90;;;;;;4899313;29;20087;-64
2021/03/15 02:59:49;;;;;;;10.27;4.18;;;5.20;99.90;;;;;;4882408;29;20124;-64
2021/03/15 03:02:16;;;;;;;8.00;3.60;;;5.20;99.90;;;;;;4898272;29;20084;-62
2021/03/15 03:04:47;;;;;;;5.95;3.80;;;5.30;99.90;;;;;;4882240;29;20043;-63
2021/03/15 03:07:14;;;;;;;5.20;3.67;;;5.30;99.90;;;;;;4898315;29;20036;-64
2021/03/15 03:09:41;;;;;;;9.23;4.00;;;5.40;99.90;;;;;;4881721;29;20056;-62
2021/03/15 03:12:09;;;;;;;6.30;3.47;;;5.40;99.90;;;;;;4898062;29;20487;-63
2021/03/15 03:14:36;;;;;;;8.45;3.67;;;5.40;99.90;;;;;;4882076;29;20054;-64
2021/03/15 03:17:03;;;;;;;7.13;3.67;;;5.30;99.90;;;;;;4881252;29;20024;-63
2021/03/15 03:19:30;;;;;;;10.85;3.70;;;5.20;99.90;;;;;;4898711;29;20119;-62
2021/03/15 03:21:57;;;;;;;9.63;4.80;;;5.20;99.90;;;;;;4881329;29;20032;-63
2021/03/15 03:24:26;;;;;;;5.85;3.60;;;5.20;99.90;;;;;;4898576;29;20064;-65
2021/03/15 03:26:53;;;;;;;13.32;5.15;;;5.20;99.90;;;;;;4898227;29;20033;-67
2021/03/15 03:29:20;;;;;;;11.07;4.03;;;5.20;99.90;;;;;;4898827;29;20036;-63
2021/03/15 03:31:47;;;;;;;7.22;4.43;;;5.00;99.90;;;;;;4881570;29;20052;-63
2021/03/15 03:34:13;;;;;;;9.60;5.63;;;4.90;99.90;;;;;;4880774;29;20032;-64
2021/03/15 03:36:39;;;;;;;10.05;5.70;;;4.90;99.90;;;;;;4898534;29;20060;-65
2021/03/15 03:39:10;;;;;;;10.55;5.78;;;4.90;99.90;;;;;;4881154;29;20494;-64
2021/03/15 03:41:37;;;;;;;10.60;5.47;;;4.90;99.90;;;;;;4881969;29;20029;-65
2021/03/15 03:44:04;;;;;;;9.20;5.82;;;5.10;99.90;;;;;;4881220;29;20041;-64
2021/03/15 03:46:29;;;;;;;8.93;5.47;;;4.90;99.90;;;;;;4881836;29;20032;-64
2021/03/15 03:48:55;;;;;;;9.27;5.15;;;5.00;99.90;;;;;;4897937;29;20032;-64
2021/03/15 03:51:24;;;;;;;10.00;5.40;;;5.00;99.90;;;;;;4881667;29;20036;-64
2021/03/15 03:54:00;;;;;;;11.18;5.18;;;5.00;99.90;;;;;;4898630;29;20032;-64
2021/03/15 03:56:37;;;;;;;9.52;5.20;;;4.90;99.90;;;;;;4898265;29;20115;-64
2021/03/15 03:59:04;;;;;;;8.00;5.35;;;4.80;99.90;;;;;;4898199;29;20043;-64
2021/03/15 04:01:38;;;;;;;8.95;5.53;;;4.90;99.90;;;;;;4881152;29;20036;-63
2021/03/15 04:04:06;;;;;;;9.35;4.88;;;4.90;99.90;;;;;;4880630;29;20059;-63
2021/03/15 04:06:35;;;;;;;10.90;5.25;;;4.90;99.90;;;;;;4880879;29;20032;-63
2021/03/15 04:09:10;;;;;;;12.38;5.07;;;5.00;99.90;;;;;;4880239;29;20497;-64
2021/03/15 04:11:38;;;;;;;9.63;5.15;;;5.00;99.90;;;;;;4881160;29;20040;-64
2021/03/15 04:14:06;;;;;;;9.00;5.03;;;4.80;99.90;;;;;;4897218;29;20080;-64
2021/03/15 04:16:38;;;;;;;11.40;4.85;;;4.80;99.90;;;;;;4897440;29;20088;-64
2021/03/15 04:19:05;;;;;;;7.47;5.18;;;4.90;99.90;;;;;;4896936;29;20032;-64
2021/03/15 04:21:32;;;;;;;8.77;4.50;;;4.90;99.90;;;;;;4880784;29;20104;-64
2021/03/15 04:24:01;;;;;;;8.00;4.40;;;5.10;99.90;;;;;;4896693;29;20534;-64
2021/03/15 04:26:28;;;;;;;10.65;5.05;;;5.10;99.90;;;;;;4880678;29;20036;-64
2021/03/15 04:28:55;;;;;;;12.45;6.28;;;4.90;99.90;;;;;;4897928;29;20033;-64
2021/03/15 04:31:23;;;;;;;7.35;4.70;;;5.00;99.90;;;;;;4880642;29;20024;-64
2021/03/15 04:33:50;;;;;;;10.40;4.78;;;4.90;99.90;;;;;;4897670;29;20088;-63
2021/03/15 04:36:17;;;;;;;8.75;4.95;;;5.00;99.90;;;;;;4896711;29;20040;-63
2021/03/15 04:38:43;;;;;;;10.88;5.53;;;5.00;99.90;;;;;;4897343;29;20080;-63
2021/03/15 04:41:10;;;;;;;14.90;5.53;;;5.00;99.90;;;;;;4879877;29;20049;-62
2021/03/15 04:43:38;;;;;;;12.38;5.93;;;5.00;99.90;;;;;;4897163;29;20028;-63
2021/03/15 04:46:08;;;;;;;12.57;5.75;;;4.90;99.90;;;;;;4895975;29;20040;-63
2021/03/15 04:48:36;;;;;;;9.32;7.07;;;5.00;99.90;;;;;;4897258;29;20029;-64
2021/03/15 04:51:05;;;;;;;9.52;5.82;;;4.90;99.90;;;;;;4896533;29;20052;-65
2021/03/15 04:53:33;;;;;;;13.75;6.05;;;4.90;99.90;;;;;;4897182;29;20032;-63
2021/03/15 04:56:07;;;;;;;11.68;6.57;;;4.80;99.90;;;;;;4879490;29;20039;-63
2021/03/15 04:58:35;;;;;;;15.40;6.43;;;4.90;99.90;;;;;;4880288;29;20051;-63
2021/03/15 05:01:02;;;;;;;13.35;6.57;;;4.90;99.90;;;;;;4896439;29;20109;-64
2021/03/15 05:03:28;;;;;;;12.43;6.88;;;4.90;99.90;;;;;;4879798;29;20036;-63
2021/03/15 05:05:55;;;;;;;13.70;6.65;;;4.90;99.90;;;;;;4879798;29;20092;-63
2021/03/15 05:08:28;;;;;;;10.32;6.82;;;4.90;99.90;;;;;;4878738;29;20029;-64
2021/03/15 05:10:55;;;;;;;10.55;7.07;;;4.80;99.90;;;;;;4896592;29;20045;-66
2021/03/15 05:13:21;;;;;;;12.60;7.25;;;4.90;99.90;;;;;;4879240;29;20146;-64
2021/03/15 05:15:47;;;;;;;13.68;8.40;;;4.90;99.90;;;;;;4879779;29;20039;-63
2021/03/15 05:18:14;;;;;;;12.43;6.43;;;4.90;99.90;;;;;;4895693;29;20108;-63
2021/03/15 05:20:41;;;;;;;11.82;7.18;;;4.90;99.90;;;;;;4877991;29;20033;-62
2021/03/15 05:23:10;;;;;;;13.13;7.32;;;4.80;99.90;;;;;;4879116;29;20044;-63
2021/03/15 05:25:43;;;;;;;10.02;7.15;;;5.00;99.90;;;;;;4876469;29;20097;-65
2021/03/15 05:28:10;;;;;;;13.23;6.57;;;5.00;99.90;;;;;;4860537;29;20052;-63
2021/03/15 05:30:37;;;;;;;11.02;6.75;;;5.00;99.90;;;;;;4877386;29;20053;-62
2021/03/15 05:33:05;;;;;;;14.55;6.97;;;4.90;99.90;;;;;;4877144;29;20033;-64
2021/03/15 05:35:31;;;;;;;11.82;7.43;;;5.00;99.90;;;;;;4885895;29;20036;-64
2021/03/15 05:38:00;;;;;;;14.32;6.68;;;4.90;99.90;;;;;;4876311;29;20033;-64
2021/03/15 05:40:27;;;;;;;17.70;8.18;;;4.90;99.90;;;;;;4877845;29;20132;-64
2021/03/15 05:43:07;;;;;;;10.52;7.25;;;4.70;99.90;;;;;;4876493;29;20040;-63
2021/03/15 05:45:54;;;;;;;10.65;7.15;;;4.80;99.90;;;;;;4877850;29;20025;-64
2021/03/15 05:49:14;;;;;;;12.88;6.15;;;4.80;99.90;;;;;;4877196;29;20287;-64
2021/03/15 05:52:01;;;;;;;12.02;6.20;;;4.80;99.90;;;;;;4859700;29;20088;-62
2021/03/15 05:54:54;;;;;;;16.83;6.85;;;4.90;99.90;;;;;;4877671;29;20039;-61
2021/03/15 05:57:51;;;;;;;13.68;6.88;;;4.90;99.90;;;;;;4876990;29;20037;-64
2021/03/15 06:00:44;;;;;;;11.10;6.18;;;5.00;99.90;;;;;;4876983;29;20036;-64
2021/03/15 06:03:22;;;;;;;14.35;7.03;;;5.00;99.90;;;;;;4876340;29;20033;-65
2021/03/15 06:05:53;;;;;;;10.77;6.65;;;5.10;99.90;;;;;;4875867;29;20040;-65
2021/03/15 06:08:23;;;;;;;13.05;6.28;;;5.10;99.90;;;;;;4875375;29;20037;-64
2021/03/15 06:10:58;;;;;;;10.52;6.00;;;5.00;99.90;;;;;;4877578;29;20100;-63
2021/03/15 06:13:26;;;;;;;9.85;6.50;;;5.00;99.90;;;;;;4875112;29;20032;-64
2021/03/15 06:15:52;;;;;;;18.38;6.32;;;5.10;99.90;;;;;;4877062;29;20088;-64
2021/03/15 06:18:18;;;;;;;7.63;5.55;;;5.20;99.90;;;;;;4876844;29;20033;-63
2021/03/15 06:20:46;;;;;;;13.40;7.22;;;5.20;99.90;;;;;;4877482;29;20133;-65
2021/03/15 06:23:15;;;;;;;12.20;6.53;;;5.30;99.90;;;;;;4875883;29;20037;-64
2021/03/15 06:25:41;;;;;;;9.93;5.68;;;5.40;99.90;;;;;;4876165;29;20128;-64
2021/03/15 06:28:08;;;;;;;9.88;4.85;;;5.30;99.90;;;;;;4877154;29;20108;-64
2021/03/15 06:30:35;;;;;;;9.93;5.93;;;5.30;99.90;;;;;;4876475;29;20077;-65
2021/03/15 06:33:01;;;;;;;8.40;5.72;;;5.40;99.90;;;;;;4860940;29;20124;-64
2021/03/15 06:35:39;;;;;;;8.52;4.40;;;5.30;99.90;;;;;;4875676;29;20104;-64
2021/03/15 06:38:06;;;;;;;8.65;4.50;;;5.40;99.90;;;;;;4875467;29;20041;-64
2021/03/15 06:40:33;;;;;;;6.15;3.67;;;5.50;99.90;;;;;;4877376;29;20108;-64
2021/03/15 06:43:00;;;;;;;6.40;3.13;;;5.50;99.90;;;;;;4876119;29;20427;-63
2021/03/15 06:45:26;;;;;;;6.07;3.42;;;5.40;99.90;;;;;;4875462;29;20033;-64
2021/03/15 06:47:52;;;;;;;8.77;4.00;;;5.50;99.90;;;;;;4877276;29;20025;-63
2021/03/15 06:50:19;;;;;;;13.55;3.95;;;5.50;99.90;;;;;;4860012;29;20025;-64
2021/03/15 06:52:51;;;;;;;6.95;3.33;;;5.30;99.90;;;;;;4860595;29;20459;-64
2021/03/15 06:55:21;;;;;;;5.95;3.80;;;5.40;99.90;;;;;;4877157;29;20033;-63
2021/03/15 06:57:47;;;;;;;6.43;4.22;;;5.40;99.90;;;;;;4877190;29;20104;-64
2021/03/15 07:00:16;;;;;;;7.78;3.33;;;5.50;99.90;;;;;;4875357;29;20116;-64
2021/03/15 07:02:42;;;;;;;6.82;3.40;;;5.50;99.90;;;;;;4859710;29;20117;-64
2021/03/15 07:05:10;;;;;;;4.18;2.88;;;5.50;99.90;;;;;;4875174;29;20444;-64
2021/03/15 07:07:38;;;;;;;8.07;3.17;;;5.50;99.90;;;;;;4876687;29;20045;-64
2021/03/15 07:10:18;;;;;;;2.85;2.33;;;5.40;99.90;;;;;;4877297;29;20049;-64
2021/03/15 07:12:44;;;;;;;3.83;2.80;;;5.50;99.90;;;;;;4879344;29;20029;-64
2021/03/15 07:15:10;;;;;;;3.95;2.20;;;5.50;99.90;;;;;;4862869;29;20032;-64
2021/03/15 07:17:37;;;;;;;3.53;2.20;;;5.50;99.90;;;;;;4880445;29;20057;-64
2021/03/15 07:20:04;;;;;;;4.03;2.08;;;5.40;99.90;;;;;;4880014;29;20029;-63
2021/03/15 07:22:31;;;;;;;4.43;2.28;;;5.50;99.90;;;;;;4879938;29;20128;-63
2021/03/15 07:25:06;;;;;;;2.88;1.80;;;5.50;99.90;;;;;;4879055;29;20033;-63
2021/03/15 07:27:33;;;;;;;3.78;2.45;;;5.40;99.90;;;;;;4879203;29;20085;-63
2021/03/15 07:30:29;;;;;;;2.83;1.88;;;5.40;99.90;;;;;;4880307;29;20039;-63
2021/03/15 07:32:58;;;;;;;2.38;1.65;;;5.50;99.90;;;;;;4878695;29;20120;-64
2021/03/15 07:35:26;;;;;;;2.70;1.65;;;5.50;99.90;;;;;;4877962;29;20120;-63
2021/03/15 07:37:52;;;;;;;4.55;1.95;;;5.50;99.90;;;;;;4877772;29;20482;-64
2021/03/15 07:40:45;;;;;;;4.80;2.15;;;5.60;99.90;;;;;;4877568;29;20037;-63
2021/03/15 07:43:13;;;;;;;5.03;2.08;;;5.50;99.90;;;;;;4877645;29;20145;-64
2021/03/15 07:45:47;;;;;;;2.55;1.48;;;5.50;99.90;;;;;;4879541;29;20041;-63
2021/03/15 07:48:17;;;;;;;3.92;1.95;;;5.60;99.90;;;;;;4877810;29;20025;-65
2021/03/15 07:50:54;;;;;;;2.30;2.08;;;5.70;99.90;;;;;;4879574;29;20377;-63
2021/03/15 07:53:36;;;;;;;4.03;2.75;;;5.80;99.90;;;;;;4877468;29;20037;-63
2021/03/15 07:56:03;;;;;;;2.42;1.80;;;5.80;99.90;;;;;;4879206;29;20029;-65
2021/03/15 07:58:34;;;;;;;4.10;2.25;;;5.80;99.90;;;;;;4878734;29;20033;-65
2021/03/15 08:01:01;;;;;;;6.57;2.57;;;5.90;99.90;;;;;;4862605;29;20048;-63
2021/03/15 08:03:28;;;;;;;5.60;2.42;;;5.80;99.90;;;;;;4878353;29;20035;-64
2021/03/15 08:05:56;;;;;;;5.18;2.50;;;5.90;99.90;;;;;;4877792;29;20463;-63
2021/03/15 08:08:22;;;;;;;4.47;2.60;;;5.80;99.90;;;;;;4876601;29;20037;-63
2021/03/15 08:10:48;;;;;;;3.88;2.85;;;5.80;99.90;;;;;;4862516;29;20033;-63
2021/03/15 08:13:21;;;;;;;4.47;3.17;;;5.80;99.90;;;;;;4878586;29;20105;-64
2021/03/15 08:15:50;;;;;;;3.88;2.72;;;5.90;99.90;;;;;;4879232;29;20036;-64
2021/03/15 08:18:24;;;;;;;5.82;2.78;;;6.00;99.90;;;;;;4877391;29;20036;-63
2021/03/15 08:21:12;;;;;;;4.03;2.67;;;6.00;99.90;;;;;;4861183;29;20131;-64
2021/03/15 08:23:42;;;;;;;5.55;3.05;;;6.10;99.90;;;;;;4861082;29;20415;-64
2021/03/15 08:26:11;;;;;;;5.72;2.72;;;6.10;99.90;;;;;;4878059;29;20227;-64
2021/03/15 08:28:38;;;;;;;4.10;2.70;;;6.10;99.90;;;;;;4862328;29;20120;-64
2021/03/15 08:31:12;;;;;;;5.20;2.70;;;6.20;99.90;;;;;;4877209;29;20029;-64
2021/03/15 08:33:38;;;;;;;4.65;2.97;;;6.20;99.90;;;;;;4875376;29;20040;-64
2021/03/15 08:36:05;;;;;;;3.22;2.60;;;6.30;99.90;;;;;;4878297;29;20072;-64
2021/03/15 08:38:33;;;;;;;3.92;2.70;;;6.40;99.90;;;;;;4876952;29;20223;-64
2021/03/15 08:41:03;;;;;;;2.78;2.28;;;6.50;99.90;;;;;;4877154;29;20033;-64
2021/03/15 08:43:31;;;;;;;5.57;2.72;;;6.50;99.90;;;;;;4876328;29;20434;-64
2021/03/15 08:46:10;;;;;;;3.88;2.63;;;6.70;99.90;;;;;;4878853;29;20060;-64
2021/03/15 08:48:39;;;;;;;3.13;1.90;;;6.70;99.90;;;;;;4878850;29;20052;-65
2021/03/15 08:51:05;;;;;;;3.42;2.58;;;6.70;99.90;;;;;;4877375;29;20029;-63
2021/03/15 08:53:37;;;;;;;6.18;2.30;;;6.60;99.90;;;;;;4876870;29;20061;-65
2021/03/15 08:56:03;;;;;;;2.47;1.70;;;6.80;99.90;;;;;;4877687;29;20119;-65
2021/03/15 08:58:35;;;;;;;2.50;2.13;;;6.80;99.90;;;;;;4876972;29;20135;-64
2021/03/15 09:01:05;;;;;;;4.03;2.33;;;6.90;99.90;;;;;;4878953;29;20033;-64
2021/03/15 09:03:56;;;;;;;3.25;2.13;;;6.90;99.90;;;;;;4878062;29;20049;-64
2021/03/15 09:06:36;;;;;;;2.90;1.90;;;7.10;99.90;;;;;;4878173;29;20044;-64
2021/03/15 09:09:20;;;;;;;3.22;1.95;;;7.20;99.90;;;;;;4877316;29;20136;-64
2021/03/15 09:11:49;;;;;;;2.05;1.48;;;7.40;99.90;;;;;;4876820;29;20047;-64
2021/03/15 09:14:15;;;;;;;5.07;1.60;;;7.50;99.90;;;;;;4876282;29;20065;-63
2021/03/15 09:16:46;;;;;;;6.60;1.83;;;7.80;99.90;;;;;;4877217;29;20029;-64
2021/03/15 09:19:25;;;;;;;4.88;1.98;;;8.10;99.90;;;;;;4877552;29;20033;-67
2021/03/15 09:21:58;;;;;;;4.80;1.60;;;8.30;99.90;;;;;;4894681;29;20056;-65
2021/03/15 09:24:57;;;;;;;3.65;1.63;;;8.50;99.90;;;;;;4897352;29;20028;-65
2021/03/15 09:27:27;;;;;;;10.30;1.88;;;8.90;99.90;;;;;;4895933;29;20041;-65
2021/03/15 09:29:59;;;;;;;3.38;1.95;;;8.90;99.90;;;;;;4893072;29;20029;-64
2021/03/15 09:32:30;;;;;;;0.95;0.70;;;8.80;99.90;;;;;;4875864;29;20033;-64
2021/03/15 09:34:59;;;;;;;0.80;0.50;;;8.70;99.90;;;;;;4878395;29;20336;-62
2021/03/15 09:37:26;;;;;;;1.55;0.32;;;8.80;99.90;;;;;;4876678;29;20119;-63
2021/03/15 09:39:57;;;;;;;3.95;0.77;;;9.00;99.90;;;;;;4876070;29;20033;-63
2021/03/15 09:42:23;;;;;;;2.20;0.40;;;9.50;99.90;;;;;;4876768;29;20035;-65
2021/03/15 09:44:49;;;;;;;0.50;0.20;;;9.90;99.90;;;;;;4878350;29;20124;-62
2021/03/15 09:47:25;;;;;;;1.90;0.57;;;10.40;99.90;;;;;;4896085;29;20088;-66
2021/03/15 09:49:51;;;;;;;5.78;0.93;;;10.80;99.90;;;;;;4895076;29;20025;-63
2021/03/15 09:52:23;;;;;;;1.80;0.70;;;10.80;99.90;;;;;;4878461;29;20032;-64
2021/03/15 09:54:56;;;;;;;3.90;0.52;;;11.20;99.90;;;;;;4879325;29;20080;-64
2021/03/15 09:57:23;;;;;;;2.67;0.47;;;11.30;99.90;;;;;;4895513;29;20048;-63
2021/03/15 09:59:50;;;;;;;0.88;0.40;;;11.20;99.90;;;;;;4879795;29;20040;-64
2021/03/15 10:02:27;;;;;;;2.20;0.60;;;11.40;99.90;;;;;;4879577;29;20033;-67
2021/03/15 10:04:53;;;;;;;2.28;0.60;;;11.80;99.90;;;;;;4876194;29;20485;-64
2021/03/15 10:07:19;;;;;;;4.68;0.47;;;11.90;99.90;;;;;;4876936;29;20037;-65
2021/03/15 10:09:45;;;;;;;1.48;0.13;;;11.60;99.90;;;;;;4876307;29;20057;-65
2021/03/15 10:12:22;;;;;;;1.23;0.52;;;12.00;99.90;;;;;;4876637;29;20060;-64
2021/03/15 10:15:06;;;;;;;1.77;0.70;;;12.40;99.90;;;;;;4878259;29;20029;-64
2021/03/15 10:17:32;;;;;;;1.73;0.70;;;12.40;99.30;;;;;;4879487;29;20033;-67
2021/03/15 10:19:57;;;;;;;1.48;0.80;;;12.50;98.10;;;;;;4876507;29;20089;-67
2021/03/15 10:22:24;;;;;;;2.20;0.60;;;12.30;96.80;;;;;;4876196;29;20036;-67
2021/03/15 10:24:51;;;;;;;1.25;0.75;;;12.80;97.70;;;;;;4876474;29;20112;-64
2021/03/15 10:27:21;;;;;;;1.83;0.60;;;13.10;96.70;;;;;;4876307;29;20416;-66
2021/03/15 10:29:58;;;;;;;1.98;0.52;;;12.70;95.40;;;;;;4877457;29;20040;-65
2021/03/15 10:32:29;;;;;;;6.78;0.65;;;13.10;95.60;;;;;;4876520;29;20078;-64
2021/03/15 10:35:00;;;;;;;2.88;0.90;;;12.80;94.10;;;;;;4877283;29;20064;-63
2021/03/15 10:37:28;;;;;;;2.70;0.88;;;12.50;94.10;;;;;;4875255;29;20037;-64
2021/03/15 10:39:54;;;;;;;4.93;1.40;;;12.30;94.80;;;;;;4875827;29;20029;-64
2021/03/15 10:42:21;;;;;;;3.65;0.82;;;12.10;93.50;;;;;;4874996;29;20108;-64
2021/03/15 10:44:48;;;;;;;2.00;0.80;;;11.80;94.40;;;;;;4877704;29;20383;-64
2021/03/15 10:47:15;;;;;;;2.70;0.88;;;11.30;93.60;;;;;;4880972;29;20060;-64
2021/03/15 10:49:42;;;;;;;3.15;0.90;;;11.30;95.30;;;;;;4880166;29;20120;-64
2021/03/15 10:52:24;;;;;;;3.13;0.90;;;11.40;94.90;;;;;;4880728;29;20037;-64
2021/03/15 10:54:50;;;;;;;3.20;1.05;;;12.10;95.00;;;;;;4879054;29;20029;-64
2021/03/15 10:57:20;;;;;;;1.98;0.98;;;12.50;92.40;;;;;;4879135;29;20029;-64
2021/03/15 10:59:47;;;;;;;3.22;0.88;;;12.30;91.40;;;;;;4879105;29;20029;-64
2021/03/15 11:02:22;;;;;;;2.35;0.80;;;12.00;91.50;;;;;;4880768;29;20035;-64
2021/03/15 11:05:06;;;;;;;2.45;1.08;;;11.50;92.20;;;;;;4880561;29;20033;-64
2021/03/15 11:07:36;;;;;;;4.03;2.08;;;11.50;92.20;;;;;;4878073;29;20487;-64
2021/03/15 11:10:08;;;;;;;3.30;1.00;;;11.50;91.60;;;;;;4880174;29;20060;-63
2021/03/15 11:12:43;;;;;;;2.30;1.23;;;11.90;91.70;;;;;;4878529;29;20036;-63
2021/03/15 11:15:36;;;;;;;3.13;0.68;;;12.40;91.50;;;;;;4878315;29;20501;-64
2021/03/15 11:18:21;;;;;;;4.07;0.80;;;12.70;86.80;;;;;;4878560;29;20048;-63
2021/03/15 11:20:51;;;;;;;1.92;0.88;;;12.60;86.20;;;;;;4880439;29;20021;-63
2021/03/15 11:23:30;;;;;;;3.90;0.70;;;13.50;90.20;;;;;;4878784;29;20580;-64
2021/03/15 11:26:14;;;;;;;2.22;0.60;;;14.50;87.00;;;;;;4878733;29;20075;-63
2021/03/15 11:28:45;;;;;;;3.25;0.50;;;14.50;77.70;;;;;;4879407;29;20108;-63
2021/03/15 11:31:19;;;;;;;3.83;0.50;;;14.30;75.40;;;;;;4879939;29;20036;-63
2021/03/15 11:33:55;;;;;;;2.45;1.10;;;14.60;78.80;;;;;;4877961;29;20088;-64
2021/03/15 11:36:23;;;;;;;2.28;0.65;;;15.00;74.20;;;;;;4878436;29;20044;-67
2021/03/15 11:39:01;;;;;;;2.63;0.75;;;14.70;73.30;;;;;;4878547;29;20041;-64
2021/03/15 11:41:31;;;;;;;12.85;1.50;;;14.50;73.50;;;;;;4879884;29;20061;-64
2021/03/15 11:43:58;;;;;;;6.13;1.30;;;14.10;74.00;;;;;;4879236;29;20040;-65
2021/03/15 11:46:23;;;;;;;3.80;1.50;;;13.70;72.70;;;;;;4879634;29;20059;-64
2021/03/15 11:48:49;;;;;;;3.10;0.95;;;13.40;75.70;;;;;;4878979;29;20176;-64
2021/03/15 11:51:16;;;;;;;2.97;0.60;;;13.10;74.20;;;;;;4878504;29;20033;-63
2021/03/15 11:53:43;;;;;;;6.95;0.90;;;12.70;75.30;;;;;;4879061;29;20239;-63
2021/03/15 11:56:09;;;;;;;2.08;1.08;;;12.60;75.70;;;;;;4879241;29;20104;-64
2021/03/15 11:58:35;;;;;;;4.15;1.75;;;12.40;77.40;;;;;;4878850;29;20029;-65
2021/03/15 12:01:05;;;;;;;4.40;1.10;;;12.50;80.30;;;;;;4877722;29;20534;-64
2021/03/15 12:03:30;;;;;;;3.28;1.27;;;12.40;78.90;;;;;;4877468;29;20033;-64
2021/03/15 12:05:56;;;;;;;2.30;1.25;;;12.20;77.50;;;;;;4879463;29;20067;-65
2021/03/15 12:08:22;;;;;;;3.75;1.13;;;12.00;79.60;;;;;;4879484;29;20029;-63
2021/03/15 12:10:49;;;;;;;3.35;1.45;;;11.50;81.00;;;;;;4878753;29;20085;-63
2021/03/15 12:13:14;;;;;;;2.13;1.40;;;11.30;83.70;;;;;;4880191;29;20039;-63
2021/03/15 12:15:41;;;;;;;1.35;0.85;;;10.90;86.60;;;;;;4877524;29;20029;-64
2021/03/15 12:18:07;;;;;;;1.15;0.90;;;10.60;93.00;;;;;;4878484;29;20056;-63
2021/03/15 12:20:34;;;;;;;2.45;1.08;;;10.30;95.10;;;;;;4877299;29;20169;-64
2021/03/15 12:23:00;;;;;;;6.45;0.95;;;10.10;96.50;;;;;;4879398;29;20032;-64
2021/03/15 12:25:26;;;;;;;2.47;1.20;;;10.10;97.50;;;;;;4877534;29;20136;-65
2021/03/15 12:27:55;;;;;;;4.15;1.13;;;10.10;97.10;;;;;;4878811;29;20107;-64
2021/03/15 12:30:22;;;;;;;2.03;1.27;;;10.10;97.20;;;;;;4878358;29;20066;-64
2021/03/15 12:32:49;;;;;;;3.10;1.17;;;10.30;97.20;;;;;;4878869;29;20044;-64
2021/03/15 12:35:15;;;;;;;1.92;0.98;;;11.00;96.70;;;;;;4879515;29;20052;-63
2021/03/15 12:37:41;;;;;;;7.03;1.10;;;11.80;96.00;;;;;;4876463;29;20484;-64
2021/03/15 12:40:07;;;;;;;4.43;1.50;;;12.60;93.40;;;;;;4877247;29;20036;-64
2021/03/15 12:42:33;;;;;;;10.15;1.48;;;13.10;91.70;;;;;;4876937;29;20125;-64
2021/03/15 12:44:59;;;;;;;6.63;1.40;;;13.40;90.80;;;;;;4877357;29;20133;-65
2021/03/15 12:47:26;;;;;;;1.92;1.40;;;13.60;89.30;;;;;;4877354;29;20037;-67
2021/03/15 12:49:51;;;;;;;6.65;1.55;;;13.70;86.70;;;;;;4878718;29;20482;-64
2021/03/15 12:52:18;;;;;;;5.63;2.15;;;14.00;82.70;;;;;;4877430;29;20088;-65
2021/03/15 12:54:43;;;;;;;6.97;2.13;;;14.20;82.90;;;;;;4878246;29;20057;-64
2021/03/15 12:57:09;;;;;;;3.13;1.35;;;14.20;78.50;;;;;;4877366;29;20121;-63
2021/03/15 12:59:36;;;;;;;1.77;1.15;;;14.20;77.10;;;;;;4877946;29;20025;-63
2021/03/15 13:02:05;;;;;;;6.55;1.48;;;14.00;76.60;;;;;;4878478;29;20110;-63
2021/03/15 13:04:31;;;;;;;3.60;1.50;;;13.80;77.90;;;;;;4877860;29;20044;-64
2021/03/15 13:06:57;;;;;;;5.28;1.63;;;13.50;79.10;;;;;;4876222;29;20041;-64